Time;durP1;ratioP1;P1;durP2;ratioP2;P2;SDS_P1;SDS_P2;PMS_P1;PMS_P2;Temp;Humidity;BMP_temperature;BMP_pressure;BME280_temperature;BME280_humidity;BME280_pressure;Samples;Min_cycle;Max_cycle;Signal;HPM_P1;HPM_P2
2021/12/27 00:01:55;;;;;;;899.73;816.77;;;3.60;99.90;;;;;;4974639;28;20455;-80
2021/12/27 00:04:21;;;;;;;893.37;811.67;;;3.60;99.90;;;;;;4974634;28;20850;-80
2021/12/27 00:06:48;;;;;;;898.17;814.47;;;3.60;99.90;;;;;;4975218;28;20843;-80
2021/12/27 00:09:15;;;;;;;905.23;820.63;;;3.60;99.90;;;;;;4974045;28;20462;-80
2021/12/27 00:11:42;;;;;;;914.50;830.40;;;3.60;99.90;;;;;;4973594;28;20478;-80
2021/12/27 00:14:09;;;;;;;915.83;830.43;;;3.50;99.90;;;;;;4973304;28;20475;-80
2021/12/27 00:16:36;;;;;;;917.00;831.50;;;3.60;99.90;;;;;;4973661;28;20451;-80
2021/12/27 00:19:04;;;;;;;935.87;850.17;;;3.60;99.90;;;;;;4973443;28;21173;-80
2021/12/27 00:21:31;;;;;;;925.63;839.57;;;3.60;99.90;;;;;;4973953;28;20451;-80
2021/12/27 00:23:58;;;;;;;934.17;849.10;;;3.60;99.90;;;;;;4973848;28;20486;-80
2021/12/27 00:26:24;;;;;;;920.83;834.67;;;3.60;99.90;;;;;;4973907;28;20458;-80
2021/12/27 00:28:51;;;;;;;927.07;840.30;;;3.60;99.90;;;;;;4973729;28;20458;-80
2021/12/27 00:31:18;;;;;;;924.80;837.50;;;3.60;99.90;;;;;;4975172;28;20454;-80
2021/12/27 00:33:45;;;;;;;923.50;837.60;;;3.60;99.90;;;;;;4976927;28;20479;-80
2021/12/27 00:36:14;;;;;;;921.37;835.53;;;3.70;99.90;;;;;;4977204;28;20458;-80
2021/12/27 00:38:41;;;;;;;931.50;845.90;;;3.60;99.90;;;;;;4976559;28;20534;-80
2021/12/27 00:41:07;;;;;;;922.00;835.50;;;3.70;99.90;;;;;;4977099;28;20462;-80
2021/12/27 00:43:34;;;;;;;929.60;842.83;;;3.70;99.90;;;;;;4976711;28;20482;-80
2021/12/27 00:46:01;;;;;;;920.07;833.30;;;3.60;99.90;;;;;;4976765;28;20466;-80
2021/12/27 00:48:28;;;;;;;929.80;842.83;;;3.70;99.90;;;;;;4976742;28;20507;-80
2021/12/27 00:50:55;;;;;;;919.43;832.13;;;3.70;99.90;;;;;;4976664;28;20463;-80
2021/12/27 00:53:23;;;;;;;922.47;835.40;;;3.70;99.90;;;;;;4977014;28;20494;-80
2021/12/27 00:55:50;;;;;;;929.03;841.87;;;3.70;99.90;;;;;;4976742;28;20459;-80
2021/12/27 00:58:17;;;;;;;921.37;833.57;;;3.70;99.90;;;;;;4976575;28;20454;-80
2021/12/27 01:00:44;;;;;;;918.43;832.87;;;3.70;99.90;;;;;;4976912;28;20456;-80
2021/12/27 01:03:11;;;;;;;925.47;838.77;;;3.70;99.90;;;;;;4976402;28;20522;-80
2021/12/27 01:05:38;;;;;;;923.40;836.60;;;3.70;99.90;;;;;;4976750;28;20459;-80
2021/12/27 01:08:06;;;;;;;923.37;837.17;;;3.70;99.90;;;;;;4976214;28;20455;-81
2021/12/27 01:13:23;;;;;;;908.93;823.47;;;3.80;99.90;;;;;;4976478;28;20477;-81
2021/12/27 01:16:10;;;;;;;910.30;824.40;;;3.80;99.90;;;;;;4976587;28;20459;-81
2021/12/27 01:18:38;;;;;;;927.93;842.20;;;3.80;99.90;;;;;;4976672;28;20557;-81
2021/12/27 01:21:04;;;;;;;920.17;834.27;;;3.80;99.90;;;;;;4977095;28;20462;-81
2021/12/27 01:23:31;;;;;;;915.27;829.97;;;3.80;99.90;;;;;;4976137;28;20826;-81
2021/12/27 01:25:59;;;;;;;912.03;826.80;;;3.80;99.90;;;;;;4976626;28;20459;-80
2021/12/27 01:28:26;;;;;;;912.30;825.20;;;3.80;99.90;;;;;;4976539;28;20466;-81
2021/12/27 01:30:54;;;;;;;932.33;845.67;;;3.80;99.90;;;;;;4976193;28;20461;-81
2021/12/27 01:33:23;;;;;;;935.10;847.90;;;3.80;99.90;;;;;;4976178;28;20516;-81
2021/12/27 01:35:50;;;;;;;934.57;847.70;;;3.80;99.90;;;;;;4976112;28;20463;-81
2021/12/27 01:38:17;;;;;;;943.80;856.93;;;3.80;99.90;;;;;;4976193;28;20455;-80
2021/12/27 01:40:46;;;;;;;945.23;858.23;;;3.90;99.90;;;;;;4976502;28;20455;-81
2021/12/27 01:43:19;;;;;;;945.90;858.10;;;3.90;99.90;;;;;;4975788;28;20479;-80
2021/12/27 01:45:48;;;;;;;946.37;859.40;;;3.90;99.90;;;;;;4976010;28;20878;-80
2021/12/27 01:48:20;;;;;;;952.47;865.27;;;3.80;99.90;;;;;;4975692;28;20463;-80
2021/12/27 01:50:48;;;;;;;928.30;840.60;;;3.90;99.90;;;;;;4976412;28;20458;-80
2021/12/27 01:53:16;;;;;;;937.90;849.37;;;3.90;99.90;;;;;;4975988;28;20487;-80
2021/12/27 01:55:43;;;;;;;940.70;851.87;;;3.90;99.90;;;;;;4975626;28;20463;-80
2021/12/27 01:58:10;;;;;;;970.77;881.47;;;3.80;99.90;;;;;;4975383;28;20470;-79
2021/12/27 02:00:42;;;;;;;970.80;882.40;;;3.90;99.90;;;;;;4975919;28;20583;-80
2021/12/27 02:03:09;;;;;;;980.23;890.63;;;3.90;99.90;;;;;;4975971;28;20557;-80
2021/12/27 02:05:38;;;;;;;969.97;880.47;;;3.90;99.90;;;;;;4975718;28;20459;-80
2021/12/27 02:08:06;;;;;;;975.73;885.07;;;3.90;99.90;;;;;;4975336;28;20459;-80
2021/12/27 02:10:33;;;;;;;987.10;896.47;;;3.90;99.90;;;;;;4975878;28;20844;-80
2021/12/27 02:13:00;;;;;;;996.00;905.07;;;3.90;99.90;;;;;;4975796;28;20483;-80
2021/12/27 02:15:27;;;;;;;978.23;887.57;;;3.90;99.90;;;;;;4975840;28;20462;-80
2021/12/27 02:17:55;;;;;;;976.07;886.10;;;3.90;99.90;;;;;;4975578;28;20461;-80
2021/12/27 02:20:25;;;;;;;985.23;894.27;;;4.00;99.90;;;;;;4975010;28;20458;-80
2021/12/27 02:22:55;;;;;;;980.93;889.73;;;3.90;99.90;;;;;;4975093;28;20471;-80
2021/12/27 02:25:22;;;;;;;973.33;883.87;;;3.90;99.90;;;;;;4974910;28;20500;-80
2021/12/27 02:27:50;;;;;;;975.90;886.50;;;3.90;99.90;;;;;;4974928;28;20467;-80
2021/12/27 02:30:18;;;;;;;972.67;882.67;;;4.00;99.90;;;;;;4975147;28;20455;-80
2021/12/27 02:32:47;;;;;;;977.93;887.27;;;3.90;99.90;;;;;;4975056;28;20541;-80
2021/12/27 02:35:16;;;;;;;967.30;877.30;;;4.00;99.90;;;;;;4974903;28;20470;-80
2021/12/27 02:37:44;;;;;;;965.50;876.00;;;3.90;99.90;;;;;;4975200;28;20455;-80
2021/12/27 02:40:12;;;;;;;964.17;874.07;;;3.90;99.90;;;;;;4975174;28;20466;-80
2021/12/27 02:42:53;;;;;;;966.77;876.70;;;4.00;99.90;;;;;;4975264;28;20827;-80
2021/12/27 02:45:21;;;;;;;984.93;892.47;;;4.00;99.90;;;;;;4975340;28;20469;-80
2021/12/27 02:47:47;;;;;;;992.80;899.77;;;4.00;99.90;;;;;;4975026;28;20455;-80
2021/12/27 02:50:14;;;;;;;984.07;892.20;;;4.00;99.90;;;;;;4975079;28;20463;-80
2021/12/27 02:52:41;;;;;;;993.43;901.87;;;4.00;99.90;;;;;;4975093;28;20494;-80
2021/12/27 02:55:13;;;;;;;985.33;893.97;;;4.00;99.90;;;;;;4974450;28;20461;-80
2021/12/27 02:57:39;;;;;;;985.90;894.00;;;4.00;99.90;;;;;;4975219;28;20454;-80
2021/12/27 03:00:15;;;;;;;984.57;893.53;;;4.10;99.90;;;;;;4975088;28;20459;-81
2021/12/27 03:02:42;;;;;;;968.23;877.27;;;4.00;99.90;;;;;;4975064;28;20475;-80
2021/12/27 03:05:10;;;;;;;976.67;884.97;;;4.10;99.90;;;;;;4975452;28;20465;-81
2021/12/27 03:07:37;;;;;;;974.97;884.70;;;4.00;99.90;;;;;;4974794;28;20944;-80
2021/12/27 03:10:05;;;;;;;961.90;871.00;;;4.00;99.90;;;;;;4974941;28;20490;-80
2021/12/27 03:12:33;;;;;;;961.77;871.77;;;3.90;99.90;;;;;;4975103;28;20490;-80
2021/12/27 03:14:59;;;;;;;970.63;879.07;;;3.90;99.90;;;;;;4975035;28;20833;-81
2021/12/27 03:17:26;;;;;;;967.70;877.70;;;3.80;99.90;;;;;;4974859;28;20455;-81
2021/12/27 03:19:53;;;;;;;968.43;877.57;;;3.80;99.90;;;;;;4975908;28;20466;-81
2021/12/27 03:22:19;;;;;;;976.00;884.50;;;3.80;99.90;;;;;;4975131;28;20458;-81
2021/12/27 03:24:46;;;;;;;981.90;889.10;;;3.90;99.90;;;;;;4974932;28;20455;-81
2021/12/27 03:27:13;;;;;;;982.47;889.37;;;3.80;99.90;;;;;;4974493;28;20473;-81
2021/12/27 03:29:41;;;;;;;987.33;895.20;;;3.90;99.90;;;;;;4974819;28;20846;-81
2021/12/27 03:32:08;;;;;;;986.90;893.67;;;3.90;99.90;;;;;;4975066;28;20855;-81
2021/12/27 03:34:41;;;;;;;985.60;893.00;;;3.90;99.90;;;;;;4975180;28;20463;-81
2021/12/27 03:37:09;;;;;;;982.17;889.37;;;3.90;99.90;;;;;;4975087;28;20459;-81
2021/12/27 03:39:35;;;;;;;979.90;887.30;;;3.90;99.90;;;;;;4974696;28;20480;-81
2021/12/27 03:42:02;;;;;;;981.77;887.73;;;4.00;99.90;;;;;;4974985;28;20461;-81
2021/12/27 03:44:29;;;;;;;978.40;885.80;;;3.90;99.90;;;;;;4974589;28;20462;-81
2021/12/27 03:46:57;;;;;;;982.47;890.20;;;4.10;99.90;;;;;;4974738;28;20459;-81
2021/12/27 03:49:24;;;;;;;978.30;886.67;;;4.00;99.90;;;;;;4974190;28;20455;-81
2021/12/27 03:51:51;;;;;;;984.40;892.30;;;4.00;99.90;;;;;;4974865;28;20455;-81
2021/12/27 03:54:17;;;;;;;982.67;890.77;;;4.10;99.90;;;;;;4973867;28;20491;-81
2021/12/27 03:56:44;;;;;;;992.10;899.90;;;4.10;99.90;;;;;;4974594;28;20451;-81
2021/12/27 03:59:21;;;;;;;988.77;896.90;;;4.20;99.90;;;;;;4974527;28;20465;-81
2021/12/27 04:01:49;;;;;;;988.13;896.40;;;4.10;99.90;;;;;;4974594;28;20458;-81
2021/12/27 04:04:17;;;;;;;992.53;900.77;;;4.10;99.90;;;;;;4974252;28;21020;-81
2021/12/27 04:06:44;;;;;;;990.37;899.67;;;4.20;99.90;;;;;;4976627;28;20459;-81
2021/12/27 04:09:11;;;;;;;991.60;901.60;;;4.20;99.90;;;;;;4977715;28;20577;-81
2021/12/27 04:11:37;;;;;;;982.67;893.27;;;4.20;99.90;;;;;;4978314;28;20485;-81
2021/12/27 04:14:04;;;;;;;976.63;887.30;;;4.20;99.90;;;;;;4977786;28;20497;-81
2021/12/27 04:16:31;;;;;;;976.47;886.97;;;4.20;99.90;;;;;;4977763;28;20462;-81
2021/12/27 04:18:58;;;;;;;970.00;881.90;;;4.20;99.90;;;;;;4977158;28;20458;-82
2021/12/27 04:21:26;;;;;;;975.23;886.37;;;4.20;99.90;;;;;;4977658;28;20458;-81
2021/12/27 04:23:53;;;;;;;964.03;876.93;;;4.20;99.90;;;;;;4977538;28;20475;-81
2021/12/27 04:26:22;;;;;;;971.30;883.50;;;4.20;99.90;;;;;;4977239;28;20461;-81
2021/12/27 04:28:49;;;;;;;964.63;877.33;;;4.10;99.90;;;;;;4977374;28;20517;-82
2021/12/27 04:31:16;;;;;;;965.97;878.37;;;4.20;99.90;;;;;;4977384;28;20462;-81
2021/12/27 04:33:43;;;;;;;977.00;888.90;;;4.20;99.90;;;;;;4977482;28;20483;-81
2021/12/27 04:36:10;;;;;;;968.83;880.57;;;4.20;99.90;;;;;;4977034;28;20488;-81
2021/12/27 04:38:42;;;;;;;974.53;885.43;;;4.10;99.90;;;;;;4976991;28;21054;-82
2021/12/27 04:41:14;;;;;;;979.17;890.67;;;4.20;99.90;;;;;;4976809;28;20443;-82
2021/12/27 04:43:42;;;;;;;976.90;888.03;;;4.20;99.90;;;;;;4977445;28;20474;-82
2021/12/27 04:46:13;;;;;;;987.20;897.20;;;4.20;99.90;;;;;;4977347;28;20526;-82
2021/12/27 04:48:42;;;;;;;977.57;888.67;;;4.20;99.90;;;;;;4977040;28;20455;-82
2021/12/27 04:51:09;;;;;;;964.37;875.97;;;4.20;99.90;;;;;;4977120;28;20983;-81
2021/12/27 04:53:37;;;;;;;962.70;875.70;;;4.20;99.90;;;;;;4976931;28;20482;-81
2021/12/27 04:56:04;;;;;;;961.20;874.20;;;4.20;99.90;;;;;;4977179;28;20459;-81
2021/12/27 04:58:31;;;;;;;956.63;870.27;;;4.20;99.90;;;;;;4976227;28;20469;-80
2021/12/27 05:00:58;;;;;;;958.23;870.97;;;4.20;99.90;;;;;;4976575;28;20462;-80
2021/12/27 05:03:25;;;;;;;948.10;860.90;;;4.30;99.90;;;;;;4976254;28;20498;-81
2021/12/27 05:05:51;;;;;;;949.83;862.70;;;4.20;99.90;;;;;;4976654;28;20459;-81
2021/12/27 05:08:18;;;;;;;953.53;865.90;;;4.30;99.90;;;;;;4976122;28;20463;-81
2021/12/27 05:10:52;;;;;;;960.17;872.00;;;4.30;99.90;;;;;;4976347;28;20833;-82
2021/12/27 05:13:22;;;;;;;952.30;865.50;;;4.30;99.90;;;;;;4976304;28;20482;-81
2021/12/27 05:15:49;;;;;;;947.17;860.77;;;4.40;99.90;;;;;;4977133;28;20466;-82
2021/12/27 05:18:16;;;;;;;970.43;881.67;;;4.30;99.90;;;;;;4977000;28;20461;-81
2021/12/27 05:20:43;;;;;;;975.87;887.80;;;4.30;99.90;;;;;;4977434;28;20458;-81
2021/12/27 05:23:10;;;;;;;964.77;876.90;;;4.30;99.90;;;;;;4977267;28;20481;-81
2021/12/27 05:25:36;;;;;;;967.07;879.57;;;4.30;99.90;;;;;;4977742;28;20451;-82
2021/12/27 05:28:05;;;;;;;974.33;886.43;;;4.30;99.90;;;;;;4977387;28;20463;-81
2021/12/27 05:30:31;;;;;;;973.10;884.90;;;4.30;99.90;;;;;;4977095;28;20450;-81
2021/12/27 05:32:58;;;;;;;977.23;889.63;;;4.30;99.90;;;;;;4977147;28;20487;-81
2021/12/27 05:35:25;;;;;;;948.40;862.57;;;4.40;99.90;;;;;;4977310;28;20462;-81
2021/12/27 05:37:52;;;;;;;937.10;851.57;;;4.40;99.90;;;;;;4977348;28;20877;-81
2021/12/27 05:40:22;;;;;;;955.77;869.43;;;4.40;99.90;;;;;;4976930;28;20455;-81
2021/12/27 05:42:49;;;;;;;951.97;866.10;;;4.40;99.90;;;;;;4976293;28;20979;-81
2021/12/27 05:45:18;;;;;;;956.17;870.83;;;4.40;99.90;;;;;;4976752;28;20495;-81
2021/12/27 05:47:46;;;;;;;962.27;876.47;;;4.40;99.90;;;;;;4976851;28;20843;-81
2021/12/27 05:50:14;;;;;;;963.80;877.53;;;4.40;99.90;;;;;;4976914;28;20459;-82
2021/12/27 05:52:43;;;;;;;970.83;883.77;;;4.40;99.90;;;;;;4976852;28;20909;-81
2021/12/27 05:55:11;;;;;;;964.70;877.77;;;4.40;99.90;;;;;;4977257;28;20483;-81
2021/12/27 05:57:38;;;;;;;966.20;879.47;;;4.50;99.90;;;;;;4977129;28;20530;-82
2021/12/27 06:00:07;;;;;;;951.40;866.60;;;4.50;99.90;;;;;;4976981;28;20455;-81
2021/12/27 06:02:37;;;;;;;951.97;866.97;;;4.50;99.90;;;;;;4978492;28;20482;-82
2021/12/27 06:05:05;;;;;;;952.80;867.20;;;4.50;99.90;;;;;;4977524;28;20455;-82
2021/12/27 06:07:31;;;;;;;983.97;897.47;;;4.50;99.90;;;;;;4976253;28;20466;-82
2021/12/27 06:09:59;;;;;;;948.10;863.63;;;4.50;99.90;;;;;;4976389;28;20546;-82
2021/12/27 06:12:25;;;;;;;944.50;860.00;;;4.50;99.90;;;;;;4976736;28;20514;-82
2021/12/27 06:14:52;;;;;;;937.57;853.60;;;4.60;99.90;;;;;;4976061;28;20479;-82
2021/12/27 06:17:22;;;;;;;928.00;844.10;;;4.50;99.90;;;;;;4976011;28;20447;-82
2021/12/27 06:19:50;;;;;;;924.77;841.37;;;4.50;99.90;;;;;;4976090;28;20478;-82
2021/12/27 06:22:19;;;;;;;935.30;852.13;;;4.50;99.90;;;;;;4974594;28;20454;-81
2021/12/27 06:24:46;;;;;;;922.97;839.47;;;4.60;99.90;;;;;;4976047;28;20461;-82
2021/12/27 06:27:13;;;;;;;923.20;839.97;;;4.50;99.90;;;;;;4975734;28;20463;-82
2021/12/27 06:29:40;;;;;;;923.73;840.33;;;4.50;99.90;;;;;;4974917;28;20463;-82
2021/12/27 06:32:13;;;;;;;910.67;827.70;;;4.50;99.90;;;;;;4975340;28;20466;-81
2021/12/27 06:35:06;;;;;;;922.47;838.57;;;4.60;99.90;;;;;;4975764;28;20574;-82
2021/12/27 06:37:44;;;;;;;927.43;844.07;;;4.60;99.90;;;;;;4975142;28;20492;-82
2021/12/27 06:40:16;;;;;;;916.80;833.60;;;4.60;99.90;;;;;;4975764;28;20465;-82
2021/12/27 06:42:43;;;;;;;932.67;849.67;;;4.60;99.90;;;;;;4975338;28;20518;-81
2021/12/27 06:45:11;;;;;;;917.23;834.60;;;4.60;99.90;;;;;;4975980;28;20455;-82
2021/12/27 06:47:37;;;;;;;909.03;826.67;;;4.60;99.90;;;;;;4974738;28;20459;-82
2021/12/27 06:50:07;;;;;;;905.07;822.27;;;4.60;99.90;;;;;;4976649;28;20459;-82
2021/12/27 06:52:34;;;;;;;900.77;818.90;;;4.60;99.90;;;;;;4975328;28;20504;-81
2021/12/27 06:55:07;;;;;;;908.90;825.57;;;4.60;99.90;;;;;;4975970;28;20828;-82
2021/12/27 06:57:45;;;;;;;907.87;824.40;;;4.70;99.90;;;;;;4974826;28;20758;-82
2021/12/27 07:00:14;;;;;;;920.60;836.80;;;4.60;99.90;;;;;;4975242;28;20459;-82
2021/12/27 07:02:41;;;;;;;917.60;834.73;;;4.70;99.90;;;;;;4975548;28;20475;-81
2021/12/27 07:05:11;;;;;;;911.23;828.20;;;4.70;99.90;;;;;;4975816;28;20523;-82
2021/12/27 07:07:38;;;;;;;889.73;807.67;;;4.70;99.90;;;;;;4975760;28;20458;-82
2021/12/27 07:10:14;;;;;;;881.40;799.80;;;4.70;99.90;;;;;;4975798;28;20470;-83
2021/12/27 07:12:40;;;;;;;887.70;806.10;;;4.60;99.90;;;;;;4974412;28;20513;-81
2021/12/27 07:15:08;;;;;;;870.37;791.13;;;4.60;99.90;;;;;;4974869;28;20483;-81
2021/12/27 07:17:35;;;;;;;877.13;797.67;;;4.70;99.90;;;;;;4974750;28;20462;-82
2021/12/27 07:20:01;;;;;;;885.33;805.43;;;4.60;99.90;;;;;;4974621;28;20462;-82
2021/12/27 07:22:34;;;;;;;898.73;819.07;;;4.60;99.90;;;;;;4974484;28;20471;-82
2021/12/27 07:25:03;;;;;;;871.37;790.90;;;4.70;99.90;;;;;;4974781;28;20459;-82
2021/12/27 07:27:33;;;;;;;862.07;782.63;;;4.70;99.90;;;;;;4975882;28;20461;-82
2021/12/27 07:30:05;;;;;;;871.43;792.90;;;4.60;99.90;;;;;;4974037;28;20455;-81
2021/12/27 07:32:34;;;;;;;870.00;790.50;;;4.70;99.90;;;;;;4974786;28;20948;-82
2021/12/27 07:35:02;;;;;;;860.20;781.30;;;4.60;99.90;;;;;;4973612;28;20565;-81
2021/12/27 07:37:35;;;;;;;861.07;778.97;;;4.60;99.90;;;;;;4974437;28;20467;-82
2021/12/27 07:40:18;;;;;;;866.03;785.90;;;4.60;99.90;;;;;;4975808;28;20891;-81
2021/12/27 07:42:45;;;;;;;873.63;793.93;;;4.50;99.90;;;;;;4978144;28;20534;-81
2021/12/27 07:45:12;;;;;;;875.73;795.30;;;4.50;99.90;;;;;;4978427;28;20963;-81
2021/12/27 07:47:39;;;;;;;878.77;796.77;;;4.50;99.90;;;;;;4977390;28;20829;-81
2021/12/27 07:50:07;;;;;;;871.60;790.00;;;4.40;99.90;;;;;;4977396;28;20550;-81
2021/12/27 07:52:36;;;;;;;879.23;795.33;;;4.30;99.90;;;;;;4977327;28;20557;-82
2021/12/27 07:55:04;;;;;;;892.23;808.77;;;4.20;99.90;;;;;;4977357;28;21094;-81
2021/12/27 07:57:31;;;;;;;900.70;815.67;;;4.10;99.90;;;;;;4977400;28;20541;-82
2021/12/27 07:59:58;;;;;;;896.27;810.00;;;4.20;99.90;;;;;;4977459;28;20477;-81
2021/12/27 08:02:25;;;;;;;887.07;799.90;;;4.10;99.90;;;;;;4977615;28;20470;-82
2021/12/27 08:04:52;;;;;;;891.47;805.27;;;4.20;99.90;;;;;;4978457;28;20574;-82
2021/12/27 08:07:19;;;;;;;885.60;797.93;;;4.20;99.90;;;;;;4977488;28;20545;-81
2021/12/27 08:09:47;;;;;;;893.23;805.37;;;4.20;99.90;;;;;;4977649;28;20461;-81
2021/12/27 08:12:14;;;;;;;895.63;807.27;;;4.20;99.90;;;;;;4977601;28;20976;-81
2021/12/27 08:14:41;;;;;;;906.67;817.87;;;4.20;99.90;;;;;;4977446;28;20475;-82
2021/12/27 08:17:08;;;;;;;900.20;812.23;;;4.20;99.90;;;;;;4977232;28;20450;-81
2021/12/27 08:19:35;;;;;;;901.87;812.97;;;4.20;99.90;;;;;;4977261;28;20484;-82
2021/12/27 08:22:03;;;;;;;916.47;828.50;;;4.40;99.90;;;;;;4977360;28;20453;-81
2021/12/27 08:24:31;;;;;;;919.40;832.00;;;4.30;99.90;;;;;;4976436;28;20466;-81
2021/12/27 08:27:02;;;;;;;914.17;826.53;;;4.50;99.90;;;;;;4977255;28;20549;-81
2021/12/27 08:29:47;;;;;;;908.70;821.13;;;4.40;99.90;;;;;;4980939;28;20465;-82
2021/12/27 08:32:15;;;;;;;914.80;826.60;;;4.50;99.90;;;;;;4978150;28;20498;-81
2021/12/27 08:34:42;;;;;;;907.87;821.57;;;4.50;99.90;;;;;;4977938;28;20565;-82
2021/12/27 08:37:11;;;;;;;910.87;824.77;;;4.70;99.90;;;;;;4977660;28;20822;-82
2021/12/27 08:39:38;;;;;;;912.43;827.03;;;4.70;99.90;;;;;;4977428;28;20459;-81
2021/12/27 08:42:07;;;;;;;895.70;812.37;;;4.80;99.90;;;;;;4977465;28;21003;-80
2021/12/27 08:44:36;;;;;;;894.70;812.53;;;4.90;99.90;;;;;;4977783;28;20451;-82
2021/12/27 08:47:03;;;;;;;893.10;811.90;;;4.90;99.90;;;;;;4977319;28;20656;-82
2021/12/27 08:49:32;;;;;;;895.43;815.83;;;5.00;99.90;;;;;;4977545;28;20458;-82
2021/12/27 08:52:00;;;;;;;904.83;824.47;;;5.10;99.90;;;;;;4976419;28;20494;-82
2021/12/27 08:54:27;;;;;;;904.13;825.57;;;5.10;99.90;;;;;;4977704;28;20510;-82
2021/12/27 08:56:56;;;;;;;885.93;808.43;;;5.20;99.90;;;;;;4977735;28;20555;-82
2021/12/27 08:59:24;;;;;;;881.70;805.77;;;5.30;99.90;;;;;;4976973;28;20951;-82
2021/12/27 09:01:51;;;;;;;866.13;791.80;;;5.30;99.90;;;;;;4977361;28;20534;-82
2021/12/27 09:04:18;;;;;;;864.87;791.57;;;5.30;99.90;;;;;;4976964;28;20478;-82
2021/12/27 09:06:45;;;;;;;874.93;802.13;;;5.40;99.90;;;;;;4977683;28;20482;-82
2021/12/27 09:09:12;;;;;;;856.97;784.77;;;5.30;99.90;;;;;;4977226;28;20541;-82
2021/12/27 09:11:39;;;;;;;863.27;792.20;;;5.40;99.90;;;;;;4977368;28;20958;-82
2021/12/27 09:14:06;;;;;;;858.47;787.67;;;5.50;99.90;;;;;;4977164;28;20483;-82
2021/12/27 09:16:34;;;;;;;849.83;781.10;;;5.50;99.90;;;;;;4977516;28;20455;-82
2021/12/27 09:19:01;;;;;;;846.33;777.47;;;5.50;99.90;;;;;;4977819;28;20455;-82
2021/12/27 09:21:28;;;;;;;845.10;778.30;;;5.70;99.90;;;;;;4977045;28;20974;-82
2021/12/27 09:23:55;;;;;;;842.80;777.40;;;5.70;99.90;;;;;;4977503;28;20918;-81
2021/12/27 09:26:22;;;;;;;824.80;759.90;;;5.70;99.90;;;;;;4977096;28;21026;-82
2021/12/27 09:28:49;;;;;;;844.27;779.20;;;5.80;99.90;;;;;;4976938;28;20459;-82
2021/12/27 09:31:17;;;;;;;836.27;772.33;;;5.80;99.90;;;;;;4976566;28;20451;-82
2021/12/27 09:33:46;;;;;;;827.30;763.90;;;5.90;99.90;;;;;;4976933;28;20506;-82
2021/12/27 09:36:13;;;;;;;822.13;757.03;;;5.80;99.90;;;;;;4976861;28;20487;-82
2021/12/27 09:38:43;;;;;;;841.87;777.77;;;6.00;99.90;;;;;;4976346;28;20455;-82
2021/12/27 09:41:10;;;;;;;846.80;781.93;;;6.00;99.90;;;;;;4977027;28;20483;-82
2021/12/27 09:43:38;;;;;;;841.83;777.30;;;6.10;99.90;;;;;;4976706;28;20991;-82
2021/12/27 09:46:06;;;;;;;827.77;762.77;;;6.20;99.90;;;;;;4976511;28;20947;-82
2021/12/27 09:48:34;;;;;;;841.27;775.53;;;6.20;99.90;;;;;;4976440;28;20469;-82
2021/12/27 09:51:03;;;;;;;847.70;780.33;;;6.10;99.90;;;;;;4976514;28;20452;-82
2021/12/27 09:53:30;;;;;;;847.83;779.47;;;6.20;99.90;;;;;;4975900;28;20525;-82
2021/12/27 09:55:57;;;;;;;855.83;787.43;;;6.30;99.90;;;;;;4975566;28;20475;-82
2021/12/27 09:58:26;;;;;;;852.50;784.90;;;6.30;99.90;;;;;;4974997;28;20459;-82
2021/12/27 10:00:53;;;;;;;851.77;783.47;;;6.40;99.90;;;;;;4976212;28;20459;-82
2021/12/27 10:03:30;;;;;;;845.17;780.07;;;6.50;99.90;;;;;;4975449;28;20566;-82
2021/12/27 10:06:11;;;;;;;836.53;772.77;;;6.60;99.90;;;;;;4976125;28;20451;-82
2021/12/27 10:08:45;;;;;;;844.53;782.40;;;6.70;99.90;;;;;;4975886;28;20483;-82
2021/12/27 10:11:19;;;;;;;835.30;776.10;;;6.70;99.90;;;;;;4976076;28;20447;-82
2021/12/27 10:14:08;;;;;;;825.93;769.50;;;6.80;99.90;;;;;;4976092;28;20484;-82
2021/12/27 10:16:40;;;;;;;823.10;768.50;;;6.80;99.90;;;;;;4971838;28;20478;-82
2021/12/27 10:19:09;;;;;;;826.70;770.90;;;6.80;99.90;;;;;;4975935;28;20546;-80
2021/12/27 10:21:41;;;;;;;826.30;772.23;;;6.90;99.90;;;;;;4975981;28;20459;-81
2021/12/27 10:24:13;;;;;;;819.50;765.70;;;6.90;99.90;;;;;;4975629;28;20506;-81
2021/12/27 10:26:39;;;;;;;806.33;754.40;;;7.00;99.90;;;;;;4975920;28;20455;-81
2021/12/27 10:29:08;;;;;;;799.17;748.78;;;7.10;99.90;;;;;;4975501;28;20458;-81
2021/12/27 10:32:01;;;;;;;812.33;762.23;;;7.10;99.90;;;;;;4975187;28;20211;-81
2021/12/27 10:34:31;;;;;;;801.90;753.63;;;7.20;99.90;;;;;;4975809;28;20475;-81
2021/12/27 10:37:22;;;;;;;783.40;737.77;;;7.30;99.90;;;;;;4976315;28;20459;-81
2021/12/27 10:39:55;;;;;;;763.77;722.87;;;7.40;99.90;;;;;;4975120;28;20451;-81
2021/12/27 10:42:27;;;;;;;741.23;702.77;;;7.30;99.90;;;;;;4974996;28;20458;-81
2021/12/27 10:44:56;;;;;;;752.43;712.83;;;7.20;99.90;;;;;;4975608;28;20455;-81
2021/12/27 10:47:26;;;;;;;757.13;715.43;;;7.10;99.90;;;;;;4975685;28;20841;-81
2021/12/27 10:49:54;;;;;;;779.27;735.03;;;7.00;99.90;;;;;;4975121;28;20458;-81
2021/12/27 10:52:57;;;;;;;782.07;735.67;;;7.00;99.90;;;;;;4975486;28;20966;-81
2021/12/27 10:55:28;;;;;;;789.50;742.10;;;6.90;99.90;;;;;;4975356;28;21009;-81
2021/12/27 10:58:10;;;;;;;797.70;748.70;;;7.00;99.90;;;;;;4975320;28;20856;-81
2021/12/27 11:00:38;;;;;;;783.10;734.80;;;7.00;99.90;;;;;;4975153;28;20477;-81
2021/12/27 11:03:05;;;;;;;793.23;744.77;;;7.00;99.90;;;;;;4975504;28;20475;-81
2021/12/27 11:05:34;;;;;;;805.07;754.27;;;7.00;99.90;;;;;;4975536;28;20447;-81
2021/12/27 11:08:05;;;;;;;808.37;756.47;;;7.00;99.90;;;;;;4975532;28;20841;-81
2021/12/27 11:10:34;;;;;;;810.30;758.17;;;6.90;99.90;;;;;;4975028;28;20962;-81
2021/12/27 11:13:01;;;;;;;815.10;762.43;;;6.90;99.90;;;;;;4975309;28;20479;-81
2021/12/27 11:15:29;;;;;;;809.67;755.37;;;6.90;99.90;;;;;;4974298;28;20489;-81
2021/12/27 11:17:57;;;;;;;807.00;752.90;;;6.90;99.90;;;;;;4975058;28;20459;-81
2021/12/27 11:20:24;;;;;;;811.13;756.47;;;7.00;99.90;;;;;;4974902;28;20459;-81
2021/12/27 11:22:54;;;;;;;815.23;760.97;;;7.00;99.90;;;;;;4975210;28;20474;-81
2021/12/27 11:25:28;;;;;;;802.30;749.93;;;7.00;99.90;;;;;;4974754;28;20466;-81
2021/12/27 11:27:55;;;;;;;800.40;745.77;;;7.10;99.90;;;;;;4974366;28;20838;-81
2021/12/27 11:30:24;;;;;;;807.97;753.03;;;7.10;99.90;;;;;;4974830;28;20478;-81
2021/12/27 11:33:12;;;;;;;806.47;751.83;;;7.20;99.90;;;;;;4974682;28;20490;-81
2021/12/27 11:36:01;;;;;;;809.57;755.10;;;7.20;99.90;;;;;;4974878;28;21018;-81
2021/12/27 11:38:30;;;;;;;824.10;767.57;;;7.20;99.90;;;;;;4974207;28;20528;-81
2021/12/27 11:40:59;;;;;;;818.67;762.97;;;7.20;99.90;;;;;;4974447;28;20461;-81
2021/12/27 11:43:46;;;;;;;830.57;774.27;;;7.40;99.90;;;;;;4974920;28;20483;-81
2021/12/27 11:46:13;;;;;;;822.70;767.37;;;7.50;99.90;;;;;;4974930;28;20459;-81
2021/12/27 11:48:45;;;;;;;810.33;757.43;;;7.60;99.90;;;;;;4974217;28;20462;-81
2021/12/27 11:51:12;;;;;;;789.40;741.53;;;7.70;99.90;;;;;;4974474;28;20925;-81
2021/12/27 11:53:53;;;;;;;755.13;714.53;;;8.00;99.90;;;;;;4975010;28;20486;-81
2021/12/27 11:56:42;;;;;;;715.07;680.27;;;8.10;99.90;;;;;;4974376;28;20475;-81
2021/12/27 11:59:28;;;;;;;648.87;620.30;;;8.20;99.90;;;;;;4974341;28;20807;-81
2021/12/27 12:01:57;;;;;;;622.93;595.97;;;8.20;99.90;;;;;;4974290;28;20459;-81
2021/12/27 12:04:42;;;;;;;610.80;585.03;;;8.20;99.90;;;;;;4974711;28;20486;-81
2021/12/27 12:07:10;;;;;;;619.40;593.13;;;8.20;99.90;;;;;;4974567;28;20494;-81
2021/12/27 12:09:46;;;;;;;613.40;586.93;;;8.20;99.90;;;;;;4974171;28;20458;-81
2021/12/27 12:12:15;;;;;;;597.97;571.97;;;8.20;99.90;;;;;;4974222;28;20478;-81
2021/12/27 12:14:42;;;;;;;620.57;593.30;;;8.20;99.90;;;;;;4974081;28;20463;-81
2021/12/27 12:17:13;;;;;;;584.63;559.13;;;8.30;99.90;;;;;;4974058;28;20486;-81
2021/12/27 12:19:45;;;;;;;558.30;534.97;;;8.30;99.90;;;;;;4974100;28;20463;-81
2021/12/27 12:22:35;;;;;;;537.23;515.27;;;8.40;99.90;;;;;;4974251;28;20839;-81
2021/12/27 12:25:13;;;;;;;573.10;549.60;;;8.40;99.90;;;;;;4974517;28;20455;-81
2021/12/27 12:27:52;;;;;;;605.23;579.23;;;8.20;99.90;;;;;;4975694;28;20903;-81
2021/12/27 12:30:19;;;;;;;593.70;568.80;;;8.20;99.90;;;;;;4978153;28;20955;-81
2021/12/27 12:33:04;;;;;;;596.13;570.83;;;8.20;99.90;;;;;;4978247;28;20851;-81